createdAt,value
2019-01-23T00:00:19.233Z,44.60
2019-01-23T00:01:19.411Z,47.10
2019-01-23T00:02:19.596Z,43.80
2019-01-23T00:03:19.776Z,46.10
2019-01-23T00:04:19.950Z,46.80
2019-01-23T00:05:20.126Z,46.30
2019-01-23T00:06:20.299Z,45.30
2019-01-23T00:07:20.473Z,45.50
2019-01-23T00:08:20.650Z,45.30
2019-01-23T00:09:20.826Z,45.70
2019-01-23T00:10:20.997Z,42.20
2019-01-23T00:11:21.176Z,46.80
2019-01-23T00:12:21.349Z,43.20
2019-01-23T00:13:21.528Z,48.70
2019-01-23T00:14:21.708Z,45.30
2019-01-23T00:15:21.883Z,47.20
2019-01-23T00:16:22.056Z,43.00
2019-01-23T00:17:22.238Z,45.50
2019-01-23T00:18:22.409Z,47.20
2019-01-23T00:19:22.581Z,43.50
2019-01-23T00:20:22.756Z,41.80
2019-01-23T00:21:22.931Z,43.50
2019-01-23T00:22:23.102Z,46.50
2019-01-23T00:23:23.277Z,45.20
2019-01-23T00:24:23.452Z,47.30
2019-01-23T00:25:23.628Z,44.10
2019-01-23T00:26:23.799Z,43.40
2019-01-23T00:27:23.978Z,44.20
2019-01-23T00:28:24.150Z,45.70
2019-01-23T00:29:24.338Z,42.70
2019-01-23T00:30:24.503Z,43.10
2019-01-23T00:31:24.692Z,42.10
2019-01-23T00:32:24.867Z,42.00
2019-01-23T00:33:25.043Z,45.10
2019-01-23T00:34:25.215Z,43.20
2019-01-23T00:35:25.392Z,49.50
2019-01-23T00:36:25.562Z,42.40
2019-01-23T00:37:25.742Z,44.80
2019-01-23T00:38:25.921Z,48.40
2019-01-23T00:39:26.095Z,45.80
2019-01-23T00:40:26.271Z,45.60
2019-01-23T00:41:26.439Z,44.80
2019-01-23T00:42:26.612Z,46.10
2019-01-23T00:43:26.785Z,41.60
2019-01-23T00:44:26.967Z,47.90
2019-01-23T00:45:27.139Z,40.30
2019-01-23T00:46:27.319Z,43.50
2019-01-23T00:47:27.497Z,41.90
2019-01-23T00:48:27.671Z,43.40
2019-01-23T00:49:27.849Z,46.00
2019-01-23T00:50:28.022Z,45.30
2019-01-23T00:51:28.196Z,45.00
2019-01-23T00:52:28.374Z,42.20
2019-01-23T00:53:28.548Z,48.70
2019-01-23T00:54:28.724Z,43.80
2019-01-23T00:55:28.906Z,43.10
2019-01-23T00:56:29.078Z,45.00
2019-01-23T00:57:29.244Z,44.50
2019-01-23T00:58:29.420Z,45.70
2019-01-23T00:59:29.606Z,44.30
2019-01-23T01:00:29.785Z,45.20
2019-01-23T01:01:29.959Z,44.80
2019-01-23T01:02:30.137Z,46.10
2019-01-23T01:03:30.314Z,46.70
2019-01-23T01:04:30.490Z,42.30
2019-01-23T01:05:30.662Z,44.40
2019-01-23T01:06:30.836Z,47.70
2019-01-23T01:07:31.009Z,43.70
2019-01-23T01:08:31.207Z,43.80
2019-01-23T01:09:31.383Z,42.80
2019-01-23T01:10:31.559Z,41.80
2019-01-23T01:11:31.735Z,46.10
2019-01-23T01:12:31.909Z,46.30
2019-01-23T01:13:32.086Z,41.10
2019-01-23T01:14:32.266Z,44.00
2019-01-23T01:15:32.444Z,42.70
2019-01-23T01:16:32.614Z,44.60
2019-01-23T01:17:32.789Z,40.20
2019-01-23T01:18:32.959Z,44.20
2019-01-23T01:19:33.137Z,41.90
2019-01-23T01:20:33.315Z,46.80
2019-01-23T01:21:33.489Z,42.50
2019-01-23T01:22:33.654Z,42.70
2019-01-23T01:23:33.836Z,46.00
2019-01-23T01:24:33.994Z,44.20
2019-01-23T01:25:34.189Z,43.90
2019-01-23T01:26:34.360Z,41.20
2019-01-23T01:27:34.540Z,43.10
2019-01-23T01:28:34.716Z,44.40
2019-01-23T01:29:34.892Z,43.50
2019-01-23T01:30:35.073Z,46.30
2019-01-23T01:31:35.247Z,45.80
2019-01-23T01:32:35.428Z,43.20
2019-01-23T01:33:35.626Z,42.10
2019-01-23T01:34:35.779Z,44.70
2019-01-23T01:35:35.957Z,44.90
2019-01-23T01:36:36.132Z,47.40
2019-01-23T01:37:36.304Z,44.20
2019-01-23T01:38:36.491Z,47.00
2019-01-23T01:39:36.673Z,46.30
2019-01-23T01:40:36.837Z,44.60
2019-01-23T01:41:37.021Z,42.10
2019-01-23T01:42:37.197Z,47.00
2019-01-23T01:43:37.372Z,41.30
2019-01-23T01:44:37.552Z,42.60
2019-01-23T01:45:37.727Z,43.20
2019-01-23T01:46:37.911Z,45.20
2019-01-23T01:47:38.122Z,48.20
2019-01-23T01:48:38.263Z,41.00
2019-01-23T01:49:38.434Z,41.40
2019-01-23T01:50:38.612Z,41.00
2019-01-23T01:51:38.789Z,45.20
2019-01-23T01:52:38.966Z,41.50
2019-01-23T01:53:39.146Z,41.70
2019-01-23T01:54:39.325Z,44.20
2019-01-23T01:55:39.492Z,42.80
2019-01-23T01:56:39.670Z,43.20
2019-01-23T01:57:39.854Z,40.80
2019-01-23T01:58:40.025Z,42.00
2019-01-23T01:59:40.203Z,43.90
2019-01-23T02:00:40.384Z,41.30
2019-01-23T02:01:40.548Z,40.00
2019-01-23T02:02:40.719Z,38.50
2019-01-23T02:03:40.900Z,38.00
2019-01-23T02:04:41.074Z,36.00
2019-01-23T02:05:41.248Z,37.20
2019-01-23T02:06:41.424Z,46.30
2019-01-23T02:07:41.601Z,44.10
2019-01-23T02:08:41.782Z,40.60
2019-01-23T02:09:45.464Z,40.60
2019-01-23T02:10:42.125Z,40.10
2019-01-23T02:11:42.295Z,40.40
2019-01-23T02:12:42.466Z,42.00
2019-01-23T02:13:42.638Z,41.60
2019-01-23T02:14:42.813Z,39.70
2019-01-23T02:15:42.991Z,43.70
2019-01-23T02:16:43.165Z,40.30
2019-01-23T02:17:43.343Z,39.80
2019-01-23T02:18:43.521Z,39.20
2019-01-23T02:19:43.758Z,37.50
2019-01-23T02:20:43.868Z,37.60
2019-01-23T02:21:44.044Z,38.20
2019-01-23T02:22:44.219Z,38.30
2019-01-23T02:23:44.395Z,38.10
2019-01-23T02:24:44.575Z,39.00
2019-01-23T02:25:44.746Z,41.60
2019-01-23T02:26:44.909Z,39.40
2019-01-23T02:27:45.082Z,41.10
2019-01-23T02:28:45.258Z,41.00
2019-01-23T02:29:45.433Z,37.60
2019-01-23T02:30:45.610Z,38.00
2019-01-23T02:31:45.788Z,38.50
2019-01-23T02:32:45.960Z,35.70
2019-01-23T02:33:46.133Z,36.20
2019-01-23T02:34:46.308Z,37.50
2019-01-23T02:35:46.494Z,37.40
2019-01-23T02:36:46.671Z,38.50
2019-01-23T02:37:46.845Z,36.90
2019-01-23T02:38:47.025Z,39.30
2019-01-23T02:39:47.202Z,41.30
2019-01-23T02:40:47.379Z,41.30
2019-01-23T02:41:47.548Z,39.40
2019-01-23T02:42:47.729Z,39.30
2019-01-23T02:43:47.898Z,38.70
2019-01-23T02:44:48.079Z,37.20
2019-01-23T02:45:48.253Z,34.40
2019-01-23T02:46:48.429Z,36.70
2019-01-23T02:47:48.616Z,37.30
2019-01-23T02:48:48.776Z,37.50
2019-01-23T02:49:48.957Z,36.00
2019-01-23T02:50:49.132Z,36.50
2019-01-23T02:51:49.309Z,35.60
2019-01-23T02:52:49.480Z,36.00
2019-01-23T02:53:49.664Z,36.40
2019-01-23T02:54:49.838Z,36.10
2019-01-23T02:55:50.018Z,36.60
2019-01-23T02:56:50.195Z,38.80
2019-01-23T02:57:50.376Z,35.90
2019-01-23T02:58:50.563Z,37.70
2019-01-23T02:59:50.728Z,37.40
2019-01-23T03:00:50.910Z,34.40
2019-01-23T03:01:51.085Z,36.80
2019-01-23T03:02:51.267Z,37.20
2019-01-23T03:03:51.431Z,35.00
2019-01-23T03:04:51.599Z,39.20
2019-01-23T03:05:51.776Z,36.00
2019-01-23T03:06:51.951Z,35.80
2019-01-23T03:07:52.128Z,36.70
2019-01-23T03:08:52.304Z,36.80
2019-01-23T03:09:52.473Z,38.50
2019-01-23T03:10:52.659Z,34.90
2019-01-23T03:11:52.834Z,37.80
2019-01-23T03:12:53.075Z,38.10
2019-01-23T03:13:53.139Z,38.10
2019-01-23T03:14:53.316Z,40.10
2019-01-23T03:15:53.494Z,35.50
2019-01-23T03:16:53.667Z,37.20
2019-01-23T03:17:53.840Z,34.60
2019-01-23T03:18:54.017Z,36.50
2019-01-23T03:19:54.195Z,34.80
2019-01-23T03:20:54.370Z,38.20
2019-01-23T03:21:54.544Z,38.10
2019-01-23T03:22:54.719Z,40.10
2019-01-23T03:23:54.891Z,37.40
2019-01-23T03:24:55.066Z,36.60
2019-01-23T03:25:55.250Z,36.00
2019-01-23T03:26:55.424Z,42.30
2019-01-23T03:27:55.602Z,36.50
2019-01-23T03:28:55.784Z,35.70
2019-01-23T03:29:55.956Z,37.90
2019-01-23T03:30:56.138Z,36.40
2019-01-23T03:31:56.326Z,36.10
2019-01-23T03:32:56.491Z,32.40
2019-01-23T03:33:56.671Z,36.80
2019-01-23T03:34:56.852Z,35.70
2019-01-23T03:35:57.025Z,35.10
2019-01-23T03:36:57.199Z,37.20
2019-01-23T03:37:57.372Z,41.40
2019-01-23T03:38:57.554Z,36.80
2019-01-23T03:39:57.726Z,36.60
2019-01-23T03:40:57.910Z,36.00
2019-01-23T03:41:58.082Z,38.90
2019-01-23T03:42:58.260Z,34.90
2019-01-23T03:43:58.436Z,36.10
2019-01-23T03:44:58.611Z,36.40
2019-01-23T03:45:58.787Z,37.50
2019-01-23T03:46:58.955Z,40.70
2019-01-23T03:47:59.137Z,34.40
2019-01-23T03:48:59.311Z,33.80
2019-01-23T03:49:59.496Z,36.90
2019-01-23T03:50:59.678Z,38.40
2019-01-23T03:51:59.855Z,36.70
2019-01-23T03:53:00.030Z,38.60
2019-01-23T03:54:00.225Z,34.70
2019-01-23T03:55:00.413Z,36.10
2019-01-23T03:56:00.579Z,38.50
2019-01-23T03:57:00.749Z,36.10
2019-01-23T03:58:00.930Z,36.80
2019-01-23T03:59:01.107Z,38.30
2019-01-23T04:00:01.290Z,38.40
2019-01-23T04:01:01.467Z,38.70
2019-01-23T04:02:01.640Z,38.50
2019-01-23T04:03:01.811Z,33.80
2019-01-23T04:04:02.002Z,34.60
2019-01-23T04:05:02.168Z,38.40
2019-01-23T04:06:02.351Z,40.70
2019-01-23T04:07:02.523Z,41.50
2019-01-23T04:08:02.707Z,36.20
2019-01-23T04:09:02.886Z,40.90
2019-01-23T04:10:03.064Z,37.70
2019-01-23T04:11:03.237Z,40.50
2019-01-23T04:12:03.401Z,38.40
2019-01-23T04:13:03.601Z,38.30
2019-01-23T04:14:03.761Z,37.90
2019-01-23T04:15:03.941Z,37.80
2019-01-23T04:16:04.121Z,37.20
2019-01-23T04:17:04.308Z,36.90
2019-01-23T04:18:04.494Z,38.10
2019-01-23T04:19:04.702Z,35.80
2019-01-23T04:20:04.872Z,37.50
2019-01-23T04:21:05.050Z,38.80
2019-01-23T04:22:05.267Z,36.90
2019-01-23T04:23:05.461Z,38.30
2019-01-23T04:24:05.616Z,39.90
2019-01-23T04:25:05.767Z,40.20
2019-01-23T04:26:05.943Z,35.80
2019-01-23T04:27:06.165Z,38.40
2019-01-23T04:28:06.322Z,38.90
2019-01-23T04:29:06.493Z,38.20
2019-01-23T04:30:06.672Z,38.80
2019-01-23T04:31:06.860Z,39.10
2019-01-23T04:32:07.032Z,40.00
2019-01-23T04:33:07.216Z,38.20
2019-01-23T04:34:07.407Z,42.10
2019-01-23T04:35:07.598Z,41.60
2019-01-23T04:36:07.799Z,41.50
2019-01-23T04:37:07.969Z,44.00
2019-01-23T04:38:08.147Z,36.30
2019-01-23T04:39:08.321Z,39.90
2019-01-23T04:40:08.526Z,39.10
2019-01-23T04:41:08.710Z,38.60
2019-01-23T04:42:08.859Z,40.20
2019-01-23T04:43:09.041Z,41.00
2019-01-23T04:44:09.214Z,37.70
2019-01-23T04:45:09.402Z,41.40
2019-01-23T04:46:09.579Z,41.30
2019-01-23T04:47:09.747Z,40.20
2019-01-23T04:48:09.926Z,42.40
2019-01-23T04:49:10.097Z,39.60
2019-01-23T04:50:10.274Z,40.70
2019-01-23T04:51:10.457Z,41.30
2019-01-23T04:52:10.658Z,42.00
2019-01-23T04:53:10.805Z,40.80
2019-01-23T04:54:10.991Z,41.10
2019-01-23T04:55:11.167Z,37.40
2019-01-23T04:56:11.321Z,43.10
2019-01-23T04:57:11.503Z,45.50
2019-01-23T04:58:11.700Z,42.10
2019-01-23T04:59:11.850Z,42.50
2019-01-23T05:00:12.027Z,37.70
2019-01-23T05:01:12.201Z,38.10
2019-01-23T05:02:12.384Z,42.80
2019-01-23T05:03:12.556Z,41.50
2019-01-23T05:04:12.735Z,41.90
2019-01-23T05:05:12.932Z,44.20
2019-01-23T05:06:13.080Z,42.10
2019-01-23T05:07:13.268Z,43.90
2019-01-23T05:08:13.448Z,39.10
2019-01-23T05:09:13.614Z,40.30
2019-01-23T05:10:13.792Z,43.90
2019-01-23T05:11:13.963Z,41.40
2019-01-23T05:12:14.149Z,42.30
2019-01-23T05:13:14.320Z,42.20
2019-01-23T05:14:14.495Z,41.30
2019-01-23T05:15:14.678Z,40.80
2019-01-23T05:16:14.867Z,38.70
2019-01-23T05:17:15.040Z,40.00
2019-01-23T05:18:15.217Z,40.20
2019-01-23T05:19:15.395Z,38.20
2019-01-23T05:20:15.572Z,38.70
2019-01-23T05:21:16.296Z,41.30
2019-01-23T05:22:15.921Z,40.40
2019-01-23T05:23:16.119Z,41.40
2019-01-23T05:24:16.292Z,40.30
2019-01-23T05:25:16.472Z,42.70
2019-01-23T05:26:16.655Z,40.60
2019-01-23T05:27:16.830Z,39.20
2019-01-23T05:28:17.011Z,45.50
2019-01-23T05:29:17.190Z,43.20
2019-01-23T05:30:17.372Z,41.20
2019-01-23T05:31:17.553Z,42.00
2019-01-23T05:32:17.727Z,38.70
2019-01-23T05:33:17.906Z,39.40
2019-01-23T05:34:18.085Z,40.30
2019-01-23T05:35:18.266Z,37.50
2019-01-23T05:36:18.439Z,37.00
2019-01-23T05:37:18.628Z,36.20
2019-01-23T05:38:18.802Z,38.80
2019-01-23T05:39:18.980Z,37.00
2019-01-23T05:40:19.161Z,38.40
2019-01-23T05:41:19.342Z,40.00
2019-01-23T05:42:19.525Z,41.10
2019-01-23T05:43:19.697Z,39.40
2019-01-23T05:44:19.880Z,41.10
2019-01-23T05:45:20.057Z,38.20
2019-01-23T05:46:20.232Z,38.80
2019-01-23T05:47:20.407Z,40.80
2019-01-23T05:48:20.592Z,37.40
2019-01-23T05:49:20.767Z,38.20
2019-01-23T05:50:20.970Z,35.50
2019-01-23T05:51:21.166Z,34.70
2019-01-23T05:52:21.347Z,37.30
2019-01-23T05:53:21.524Z,34.50
2019-01-23T05:54:21.730Z,41.70
2019-01-23T05:55:21.872Z,40.00
2019-01-23T05:56:22.051Z,39.60
2019-01-23T05:57:22.225Z,39.40
2019-01-23T05:58:22.407Z,34.80
2019-01-23T05:59:22.585Z,37.90
2019-01-23T06:00:22.761Z,39.60
2019-01-23T06:01:22.947Z,38.60
2019-01-23T06:02:23.128Z,38.00
2019-01-23T06:03:23.323Z,35.60
2019-01-23T06:04:23.508Z,40.50
2019-01-23T06:05:23.686Z,36.50
2019-01-23T06:06:23.860Z,36.70
2019-01-23T06:07:24.038Z,38.80
2019-01-23T06:08:24.221Z,40.50
2019-01-23T06:09:24.397Z,40.20
2019-01-23T06:10:24.578Z,36.80
2019-01-23T06:11:24.748Z,39.90
2019-01-23T06:12:24.937Z,36.50
2019-01-23T06:13:25.105Z,34.20
2019-01-23T06:14:25.286Z,33.30
2019-01-23T06:15:25.464Z,34.80
2019-01-23T06:16:25.640Z,34.10
2019-01-23T06:17:25.812Z,36.90
2019-01-23T06:18:25.992Z,34.80
2019-01-23T06:19:26.170Z,40.60
2019-01-23T06:20:26.344Z,34.30
2019-01-23T06:21:26.520Z,36.70
2019-01-23T06:22:26.701Z,37.10
2019-01-23T06:23:26.877Z,37.10
2019-01-23T06:24:27.060Z,34.90
2019-01-23T06:25:27.239Z,34.00
2019-01-23T06:26:27.411Z,35.00
2019-01-23T06:27:27.591Z,35.10
2019-01-23T06:28:27.768Z,35.00
2019-01-23T06:29:27.951Z,33.90
2019-01-23T06:30:28.135Z,33.30
2019-01-23T06:31:28.312Z,34.00
2019-01-23T06:32:28.490Z,28.10
2019-01-23T06:33:28.663Z,33.90
2019-01-23T06:34:28.837Z,34.50
2019-01-23T06:35:29.024Z,33.40
2019-01-23T06:36:29.207Z,33.50
2019-01-23T06:37:29.380Z,36.40
2019-01-23T06:38:29.559Z,35.60
2019-01-23T06:39:29.733Z,33.20
2019-01-23T06:40:29.930Z,36.50
2019-01-23T06:41:30.104Z,34.20
2019-01-23T06:42:30.280Z,38.30
2019-01-23T06:43:30.456Z,37.60
2019-01-23T06:44:30.634Z,35.40
2019-01-23T06:45:30.807Z,34.80
2019-01-23T06:46:30.998Z,30.40
2019-01-23T06:47:31.178Z,33.10
2019-01-23T06:48:31.356Z,36.00
2019-01-23T06:49:31.532Z,33.30
2019-01-23T06:50:31.705Z,32.80
2019-01-23T06:51:31.875Z,34.00
2019-01-23T06:52:32.077Z,30.90
2019-01-23T06:53:32.235Z,33.10
2019-01-23T06:54:32.429Z,33.30
2019-01-23T06:55:32.606Z,32.30
2019-01-23T06:56:32.792Z,34.60
2019-01-23T06:57:32.958Z,32.50
2019-01-23T06:58:33.138Z,34.80
2019-01-23T06:59:33.311Z,30.00
2019-01-23T07:00:33.492Z,33.70
2019-01-23T07:01:33.664Z,34.60
2019-01-23T07:02:33.853Z,34.80
2019-01-23T07:03:34.036Z,34.90
2019-01-23T07:04:34.210Z,33.90
2019-01-23T07:05:34.391Z,32.60
2019-01-23T07:06:34.562Z,32.20
2019-01-23T07:07:34.737Z,34.20
2019-01-23T07:08:34.923Z,31.40
2019-01-23T07:09:35.125Z,34.80
2019-01-23T07:10:35.294Z,36.40
2019-01-23T07:11:35.468Z,37.70
2019-01-23T07:12:35.650Z,33.30
2019-01-23T07:13:35.867Z,36.50
2019-01-23T07:14:36.001Z,38.70
2019-01-23T07:15:36.185Z,38.00
2019-01-23T07:16:36.359Z,35.40
2019-01-23T07:17:36.545Z,37.70
2019-01-23T07:18:36.720Z,37.20
2019-01-23T07:19:36.897Z,32.60
2019-01-23T07:20:37.065Z,36.00
2019-01-23T07:21:37.249Z,35.10
2019-01-23T07:22:37.430Z,34.70
2019-01-23T07:23:37.609Z,37.90
2019-01-23T07:24:37.784Z,35.10
2019-01-23T07:25:37.967Z,37.30
2019-01-23T07:26:38.147Z,38.60
2019-01-23T07:27:38.324Z,35.70
2019-01-23T07:28:38.501Z,33.50
2019-01-23T07:29:38.676Z,41.20
2019-01-23T07:30:38.855Z,37.80
2019-01-23T07:31:39.029Z,36.30
2019-01-23T07:32:39.216Z,36.00
2019-01-23T07:33:39.388Z,33.70
2019-01-23T07:34:39.564Z,41.50
2019-01-23T07:35:39.745Z,37.20
2019-01-23T07:36:39.926Z,37.90
2019-01-23T07:37:40.105Z,38.00
2019-01-23T07:38:40.280Z,37.00
2019-01-23T07:39:40.457Z,36.30
2019-01-23T07:40:40.638Z,36.60
2019-01-23T07:41:40.818Z,35.90
2019-01-23T07:42:40.996Z,37.10
2019-01-23T07:43:41.161Z,38.50
2019-01-23T07:44:41.334Z,36.60
2019-01-23T07:45:41.509Z,41.60
2019-01-23T07:46:41.697Z,38.30
2019-01-23T07:47:41.878Z,36.80
2019-01-23T07:48:42.053Z,36.70
2019-01-23T07:49:42.273Z,35.80
2019-01-23T07:50:42.423Z,38.60
2019-01-23T07:51:42.605Z,37.40
2019-01-23T07:52:42.784Z,38.10
2019-01-23T07:53:42.965Z,36.30
2019-01-23T07:54:43.141Z,39.30
2019-01-23T07:55:43.323Z,35.90
2019-01-23T07:56:43.511Z,40.50
2019-01-23T07:57:43.730Z,38.40
2019-01-23T07:58:43.863Z,40.60
2019-01-23T07:59:44.035Z,37.50
2019-01-23T08:00:44.215Z,36.40
2019-01-23T08:01:44.394Z,40.80
2019-01-23T08:02:44.572Z,40.80
2019-01-23T08:03:44.751Z,40.20
2019-01-23T08:04:44.926Z,39.90
2019-01-23T08:05:45.101Z,35.80
2019-01-23T08:06:45.275Z,42.50
2019-01-23T08:07:45.454Z,38.40
2019-01-23T08:08:45.641Z,40.10
2019-01-23T08:09:45.819Z,39.20
2019-01-23T08:10:46.027Z,38.90
2019-01-23T08:11:46.203Z,43.30
2019-01-23T08:12:46.380Z,38.80
2019-01-23T08:13:46.611Z,37.60
2019-01-23T08:14:46.738Z,38.60
2019-01-23T08:15:46.916Z,38.50
2019-01-23T08:16:47.093Z,40.70
2019-01-23T08:17:47.284Z,41.40
2019-01-23T08:18:47.439Z,38.30
2019-01-23T08:19:47.619Z,43.90
2019-01-23T08:20:47.796Z,41.50
2019-01-23T08:21:47.972Z,38.00
2019-01-23T08:22:48.139Z,43.00
2019-01-23T08:23:48.318Z,38.40
2019-01-23T08:24:48.489Z,38.70
2019-01-23T08:25:48.675Z,40.10
2019-01-23T08:26:48.857Z,41.80
2019-01-23T08:27:49.035Z,39.80
2019-01-23T08:28:49.207Z,39.20
2019-01-23T08:29:49.436Z,39.50
2019-01-23T08:30:49.626Z,39.60
2019-01-23T08:31:49.801Z,37.40
2019-01-23T08:32:49.986Z,39.90
2019-01-23T08:33:50.164Z,37.10
2019-01-23T08:34:50.338Z,41.50
2019-01-23T08:35:50.531Z,38.40
2019-01-23T08:36:50.707Z,40.00
2019-01-23T08:37:50.885Z,40.40
2019-01-23T08:38:51.059Z,40.50
2019-01-23T08:39:51.239Z,41.90
2019-01-23T08:40:51.431Z,40.80
2019-01-23T08:41:51.607Z,42.00
2019-01-23T08:42:51.791Z,37.20
2019-01-23T08:43:51.968Z,37.40
2019-01-23T08:44:52.157Z,36.20
2019-01-23T08:45:52.331Z,42.20
2019-01-23T08:46:52.506Z,38.00
2019-01-23T08:47:52.681Z,38.70
2019-01-23T08:48:52.858Z,38.10
2019-01-23T08:49:53.047Z,41.10
2019-01-23T08:50:53.229Z,40.90
2019-01-23T08:51:53.406Z,40.60
2019-01-23T08:52:53.587Z,38.30
2019-01-23T08:53:53.774Z,38.90
2019-01-23T08:54:53.945Z,42.00
2019-01-23T08:55:54.130Z,40.50
2019-01-23T08:56:54.320Z,40.60
2019-01-23T08:57:54.496Z,42.00
2019-01-23T08:58:54.670Z,43.50
2019-01-23T08:59:54.852Z,41.70
2019-01-23T09:00:55.028Z,38.20
2019-01-23T09:01:55.232Z,38.70
2019-01-23T09:02:55.412Z,41.50
2019-01-23T09:03:55.591Z,39.80
2019-01-23T09:04:55.771Z,40.50
2019-01-23T09:05:55.949Z,40.60
2019-01-23T09:06:56.139Z,38.30
2019-01-23T09:07:56.308Z,40.70
2019-01-23T09:08:56.490Z,41.00
2019-01-23T09:09:56.675Z,48.40
2019-01-23T09:10:56.872Z,40.60
2019-01-23T09:11:57.036Z,40.60
2019-01-23T09:12:57.214Z,40.50
2019-01-23T09:13:57.388Z,39.00
2019-01-23T09:14:57.565Z,41.60
2019-01-23T09:15:57.742Z,38.80
2019-01-23T09:16:57.924Z,41.30
2019-01-23T09:17:58.108Z,39.40
2019-01-23T09:18:58.286Z,43.60
2019-01-23T09:19:58.458Z,42.10
2019-01-23T09:20:58.633Z,43.90
2019-01-23T09:21:58.814Z,40.50
2019-01-23T09:22:58.993Z,41.40
2019-01-23T09:23:59.175Z,40.90
2019-01-23T09:24:59.350Z,39.40
2019-01-23T09:25:59.525Z,38.40
2019-01-23T09:26:59.701Z,40.40
2019-01-23T09:27:59.875Z,39.70
2019-01-23T09:29:00.056Z,42.10
2019-01-23T09:30:00.232Z,42.00
2019-01-23T09:31:00.407Z,40.50
2019-01-23T09:32:00.584Z,43.10
2019-01-23T09:33:00.775Z,42.10
2019-01-23T09:34:00.939Z,41.70
2019-01-23T09:35:01.120Z,44.70
2019-01-23T09:36:01.300Z,40.80
2019-01-23T09:37:01.490Z,42.40
2019-01-23T09:38:01.664Z,43.70
2019-01-23T09:39:01.842Z,45.70
2019-01-23T09:40:02.021Z,40.90
2019-01-23T09:41:02.195Z,42.40
2019-01-23T09:42:02.372Z,40.60
2019-01-23T09:43:02.549Z,41.20
2019-01-23T09:44:02.734Z,42.00
2019-01-23T09:45:02.908Z,43.30
2019-01-23T09:46:03.083Z,40.50
2019-01-23T09:47:03.268Z,41.80
2019-01-23T09:48:03.467Z,39.80
2019-01-23T09:49:03.650Z,43.00
2019-01-23T09:50:03.824Z,43.40
2019-01-23T09:51:04.006Z,39.10
2019-01-23T09:52:04.182Z,43.40
2019-01-23T09:53:04.361Z,41.20
2019-01-23T09:54:04.538Z,38.70
2019-01-23T09:55:04.721Z,41.90
2019-01-23T09:56:04.907Z,40.60
2019-01-23T09:57:05.082Z,41.80
2019-01-23T09:58:05.257Z,41.10
2019-01-23T09:59:05.437Z,41.90
2019-01-23T10:00:05.634Z,42.00
2019-01-23T10:01:06.618Z,40.10
2019-01-23T10:02:05.991Z,37.80
2019-01-23T10:03:06.167Z,40.90
2019-01-23T10:04:06.353Z,39.40
2019-01-23T10:05:06.532Z,45.70
2019-01-23T10:06:06.710Z,40.00
2019-01-23T10:07:06.897Z,39.70
2019-01-23T10:08:07.069Z,45.60
2019-01-23T10:09:07.248Z,42.50
2019-01-23T10:10:07.425Z,45.70
2019-01-23T10:11:07.612Z,39.20
2019-01-23T10:12:07.789Z,43.10
2019-01-23T10:13:11.468Z,42.70
2019-01-23T10:14:08.142Z,42.40
2019-01-23T10:15:08.318Z,42.80
2019-01-23T10:16:08.514Z,44.50
2019-01-23T10:17:08.685Z,39.80
2019-01-23T10:18:08.869Z,45.50
2019-01-23T10:19:09.046Z,44.40
2019-01-23T10:20:09.230Z,45.90
2019-01-23T10:21:09.400Z,49.10
2019-01-23T10:22:09.586Z,43.70
2019-01-23T10:23:09.770Z,47.60
2019-01-23T10:24:09.946Z,47.30
2019-01-23T10:25:10.122Z,40.40
2019-01-23T10:26:10.301Z,46.10
2019-01-23T10:27:10.482Z,43.80
2019-01-23T10:28:10.669Z,44.20
2019-01-23T10:29:10.857Z,41.20
2019-01-23T10:30:11.034Z,41.60
2019-01-23T10:31:11.216Z,41.10
2019-01-23T10:32:11.399Z,42.90
2019-01-23T10:33:11.614Z,42.90
2019-01-23T10:34:11.791Z,42.00
2019-01-23T10:35:11.967Z,44.60
2019-01-23T10:36:12.146Z,41.20
2019-01-23T10:37:12.325Z,40.10
2019-01-23T10:38:12.506Z,44.40
2019-01-23T10:39:12.680Z,48.50
2019-01-23T10:40:12.855Z,41.40
2019-01-23T10:41:13.034Z,42.30
2019-01-23T10:42:13.216Z,40.80
2019-01-23T10:43:13.392Z,45.00
2019-01-23T10:44:13.569Z,46.70
2019-01-23T10:45:13.750Z,43.50
2019-01-23T10:46:13.929Z,43.20
2019-01-23T10:47:14.105Z,45.30
2019-01-23T10:48:14.284Z,44.90
2019-01-23T10:49:14.463Z,42.30
2019-01-23T10:50:14.641Z,45.30
2019-01-23T10:51:14.821Z,47.20
2019-01-23T10:52:15.011Z,40.80
2019-01-23T10:53:15.189Z,44.30
2019-01-23T10:54:15.366Z,47.10
2019-01-23T10:55:15.548Z,45.30
2019-01-23T10:56:15.728Z,44.40
2019-01-23T10:57:15.905Z,45.70
2019-01-23T10:58:16.082Z,44.90
2019-01-23T10:59:16.267Z,46.20
2019-01-23T11:00:16.445Z,41.40
2019-01-23T11:01:16.615Z,43.50
2019-01-23T11:02:16.801Z,42.30
2019-01-23T11:03:16.982Z,40.10
2019-01-23T11:04:17.157Z,43.50
2019-01-23T11:05:17.343Z,41.90
2019-01-23T11:06:17.528Z,43.70
2019-01-23T11:07:17.705Z,41.10
2019-01-23T11:08:17.877Z,41.60
2019-01-23T11:09:18.132Z,42.60
2019-01-23T11:10:18.242Z,38.20
2019-01-23T11:11:18.417Z,41.20
2019-01-23T11:12:18.596Z,38.60
2019-01-23T11:13:20.864Z,37.90
2019-01-23T11:14:18.929Z,41.40
2019-01-23T11:15:19.279Z,39.00
2019-01-23T11:16:19.834Z,39.80
2019-01-23T11:17:19.465Z,39.10
2019-01-23T11:18:19.643Z,40.60
2019-01-23T11:19:19.825Z,39.50
2019-01-23T11:20:20.006Z,39.80
2019-01-23T11:21:20.186Z,41.70
2019-01-23T11:22:20.365Z,42.80
2019-01-23T11:23:20.551Z,38.10
2019-01-23T11:24:20.730Z,41.50
2019-01-23T11:25:20.909Z,37.70
2019-01-23T11:26:21.096Z,38.00
2019-01-23T11:27:21.270Z,37.80
2019-01-23T11:28:21.456Z,38.00
2019-01-23T11:29:21.627Z,39.50
2019-01-23T11:30:21.813Z,40.00
2019-01-23T11:31:21.994Z,41.30
2019-01-23T11:32:22.177Z,36.70
2019-01-23T11:33:22.346Z,41.10
2019-01-23T11:34:22.540Z,39.40
2019-01-23T11:35:22.719Z,36.30
2019-01-23T11:36:22.891Z,38.30
2019-01-23T11:37:23.069Z,35.90
2019-01-23T11:38:23.253Z,34.30
2019-01-23T11:39:23.434Z,39.30
2019-01-23T11:40:23.617Z,40.90
2019-01-23T11:41:23.792Z,35.30
2019-01-23T11:42:23.977Z,41.20
2019-01-23T11:43:24.155Z,38.90
2019-01-23T11:44:24.338Z,36.40
2019-01-23T11:45:24.514Z,35.80
2019-01-23T11:46:24.761Z,33.40
2019-01-23T11:47:24.870Z,35.80
2019-01-23T11:48:25.050Z,39.10
2019-01-23T11:49:25.229Z,35.40
2019-01-23T11:50:25.410Z,36.00
2019-01-23T11:51:25.593Z,35.80
2019-01-23T11:52:25.767Z,36.30
2019-01-23T11:53:25.947Z,37.50
2019-01-23T11:54:26.131Z,35.60
2019-01-23T11:55:26.312Z,38.10
2019-01-23T11:56:26.486Z,37.40
2019-01-23T11:57:26.664Z,36.40
2019-01-23T11:58:26.850Z,37.70
2019-01-23T11:59:27.032Z,38.60
2019-01-23T12:00:27.213Z,35.50
2019-01-23T12:01:27.890Z,39.60
2019-01-23T12:02:31.018Z,36.80
2019-01-23T12:03:27.755Z,35.70
2019-01-23T12:04:27.931Z,33.50
2019-01-23T12:05:28.113Z,35.10
2019-01-23T12:06:28.287Z,37.20
2019-01-23T12:07:28.466Z,39.10
2019-01-23T12:08:28.651Z,34.50
2019-01-23T12:09:28.831Z,36.40
2019-01-23T12:10:29.013Z,38.40
2019-01-23T12:11:29.188Z,39.10
2019-01-23T12:12:29.369Z,36.70
2019-01-23T12:13:29.548Z,35.50
2019-01-23T12:14:29.725Z,33.20
2019-01-23T12:15:29.905Z,33.70
2019-01-23T12:16:30.094Z,34.30
2019-01-23T12:17:30.273Z,36.10
2019-01-23T12:18:30.457Z,34.60
2019-01-23T12:19:30.636Z,35.10
2019-01-23T12:20:30.817Z,33.20
2019-01-23T12:21:30.996Z,34.80
2019-01-23T12:22:31.177Z,37.90
2019-01-23T12:23:31.356Z,37.90
2019-01-23T12:24:31.531Z,35.70
2019-01-23T12:25:31.716Z,37.00
2019-01-23T12:26:31.897Z,33.50
2019-01-23T12:27:32.077Z,37.60
2019-01-23T12:28:32.255Z,37.70
2019-01-23T12:29:32.437Z,35.50
2019-01-23T12:30:32.615Z,32.50
2019-01-23T12:31:35.207Z,34.30
2019-01-23T12:32:32.973Z,37.30
2019-01-23T12:33:33.150Z,35.00
2019-01-23T12:34:33.390Z,36.00
2019-01-23T12:35:33.525Z,34.50
2019-01-23T12:36:33.727Z,33.80
2019-01-23T12:37:33.883Z,37.50
2019-01-23T12:38:34.061Z,35.90
2019-01-23T12:39:34.245Z,34.50
2019-01-23T12:40:34.428Z,39.10
2019-01-23T12:41:34.617Z,36.40
2019-01-23T12:42:34.802Z,35.40
2019-01-23T12:43:34.981Z,35.40
2019-01-23T12:44:35.161Z,38.50
2019-01-23T12:45:35.337Z,35.20
2019-01-23T12:46:35.514Z,33.80
2019-01-23T12:47:35.692Z,37.10
2019-01-23T12:48:35.872Z,35.80
2019-01-23T12:49:36.054Z,38.20
2019-01-23T12:50:36.242Z,35.50
2019-01-23T12:51:36.418Z,33.90
2019-01-23T12:52:36.592Z,38.00
2019-01-23T12:53:36.773Z,37.40
2019-01-23T12:54:36.963Z,38.00